sensor_id;sensor_type;location;lat;lon;timestamp;temperature;humidity
20141;DHT22;10231;47.702;9.826;2023-11-19T00:00:36;5.70;99.90
20141;DHT22;10231;47.702;9.826;2023-11-19T00:03:01;5.70;99.90
20141;DHT22;10231;47.702;9.826;2023-11-19T00:05:27;5.60;99.90
20141;DHT22;10231;47.702;9.826;2023-11-19T00:07:55;5.60;99.90
20141;DHT22;10231;47.702;9.826;2023-11-19T00:10:21;5.70;99.90
20141;DHT22;10231;47.702;9.826;2023-11-19T00:12:48;5.70;99.90
20141;DHT22;10231;47.702;9.826;2023-11-19T00:15:14;5.70;99.90
20141;DHT22;10231;47.702;9.826;2023-11-19T00:17:41;5.80;99.90
20141;DHT22;10231;47.702;9.826;2023-11-19T00:20:17;5.80;99.90
20141;DHT22;10231;47.702;9.826;2023-11-19T00:22:43;5.80;99.90
20141;DHT22;10231;47.702;9.826;2023-11-19T00:25:09;5.80;99.90
20141;DHT22;10231;47.702;9.826;2023-11-19T00:27:36;5.70;99.90
20141;DHT22;10231;47.702;9.826;2023-11-19T00:30:03;5.70;99.90
20141;DHT22;10231;47.702;9.826;2023-11-19T00:32:31;5.70;99.90
20141;DHT22;10231;47.702;9.826;2023-11-19T00:34:57;5.70;99.90
20141;DHT22;10231;47.702;9.826;2023-11-19T00:37:22;5.70;99.90
20141;DHT22;10231;47.702;9.826;2023-11-19T00:39:48;5.70;99.90
20141;DHT22;10231;47.702;9.826;2023-11-19T00:42:13;5.70;99.90
20141;DHT22;10231;47.702;9.826;2023-11-19T00:44:39;5.70;99.90
20141;DHT22;10231;47.702;9.826;2023-11-19T00:47:05;5.70;99.90
20141;DHT22;10231;47.702;9.826;2023-11-19T00:49:31;5.70;99.90
20141;DHT22;10231;47.702;9.826;2023-11-19T00:51:58;5.60;99.90
20141;DHT22;10231;47.702;9.826;2023-11-19T00:54:24;5.60;99.90
20141;DHT22;10231;47.702;9.826;2023-11-19T00:56:51;5.60;99.90
20141;DHT22;10231;47.702;9.826;2023-11-19T00:59:18;5.60;99.90
20141;DHT22;10231;47.702;9.826;2023-11-19T01:01:43;5.60;99.90
20141;DHT22;10231;47.702;9.826;2023-11-19T01:04:09;5.60;99.90
20141;DHT22;10231;47.702;9.826;2023-11-19T01:06:34;5.60;99.90
20141;DHT22;10231;47.702;9.826;2023-11-19T01:09:00;5.60;99.90
20141;DHT22;10231;47.702;9.826;2023-11-19T01:11:26;5.70;99.90
20141;DHT22;10231;47.702;9.826;2023-11-19T01:13:52;5.70;99.90
20141;DHT22;10231;47.702;9.826;2023-11-19T01:16:18;5.70;99.90
20141;DHT22;10231;47.702;9.826;2023-11-19T01:18:44;5.70;99.90
20141;DHT22;10231;47.702;9.826;2023-11-19T01:21:10;5.80;99.90
20141;DHT22;10231;47.702;9.826;2023-11-19T01:23:37;5.80;99.90
20141;DHT22;10231;47.702;9.826;2023-11-19T01:26:02;5.80;99.90
20141;DHT22;10231;47.702;9.826;2023-11-19T01:28:28;5.80;99.90
20141;DHT22;10231;47.702;9.826;2023-11-19T01:30:54;5.80;99.90
20141;DHT22;10231;47.702;9.826;2023-11-19T01:33:19;5.80;99.90
20141;DHT22;10231;47.702;9.826;2023-11-19T01:35:45;5.80;99.90
20141;DHT22;10231;47.702;9.826;2023-11-19T01:38:11;5.90;99.90
20141;DHT22;10231;47.702;9.826;2023-11-19T01:40:37;5.90;99.90
20141;DHT22;10231;47.702;9.826;2023-11-19T01:43:03;5.90;99.90
20141;DHT22;10231;47.702;9.826;2023-11-19T01:45:31;5.90;99.90
20141;DHT22;10231;47.702;9.826;2023-11-19T01:47:57;5.80;99.90
20141;DHT22;10231;47.702;9.826;2023-11-19T01:50:24;5.90;99.90
20141;DHT22;10231;47.702;9.826;2023-11-19T01:52:54;5.90;99.90
20141;DHT22;10231;47.702;9.826;2023-11-19T01:55:20;5.80;99.90
20141;DHT22;10231;47.702;9.826;2023-11-19T01:57:47;5.80;99.90
20141;DHT22;10231;47.702;9.826;2023-11-19T02:00:13;5.80;99.90
20141;DHT22;10231;47.702;9.826;2023-11-19T02:02:40;5.80;99.90
20141;DHT22;10231;47.702;9.826;2023-11-19T02:05:07;5.90;99.90
20141;DHT22;10231;47.702;9.826;2023-11-19T02:07:32;5.80;99.90
20141;DHT22;10231;47.702;9.826;2023-11-19T02:09:58;5.90;99.90
20141;DHT22;10231;47.702;9.826;2023-11-19T02:12:28;5.90;99.90
20141;DHT22;10231;47.702;9.826;2023-11-19T02:14:54;6.00;99.90
20141;DHT22;10231;47.702;9.826;2023-11-19T02:17:27;5.90;99.90
20141;DHT22;10231;47.702;9.826;2023-11-19T02:19:53;5.90;99.90
20141;DHT22;10231;47.702;9.826;2023-11-19T02:22:18;5.90;99.90
20141;DHT22;10231;47.702;9.826;2023-11-19T02:24:45;5.90;99.90
20141;DHT22;10231;47.702;9.826;2023-11-19T02:27:20;5.90;99.90
20141;DHT22;10231;47.702;9.826;2023-11-19T02:29:49;6.00;99.90
20141;DHT22;10231;47.702;9.826;2023-11-19T02:32:16;6.00;99.90
20141;DHT22;10231;47.702;9.826;2023-11-19T02:34:42;6.00;99.90
20141;DHT22;10231;47.702;9.826;2023-11-19T02:37:07;6.00;99.90
20141;DHT22;10231;47.702;9.826;2023-11-19T02:39:33;6.00;99.90
20141;DHT22;10231;47.702;9.826;2023-11-19T02:41:59;6.00;99.90
20141;DHT22;10231;47.702;9.826;2023-11-19T02:44:25;6.00;99.90
20141;DHT22;10231;47.702;9.826;2023-11-19T02:46:53;6.10;99.90
20141;DHT22;10231;47.702;9.826;2023-11-19T02:49:19;6.00;99.90
20141;DHT22;10231;47.702;9.826;2023-11-19T02:51:44;6.10;99.90
20141;DHT22;10231;47.702;9.826;2023-11-19T02:54:10;6.10;99.90
20141;DHT22;10231;47.702;9.826;2023-11-19T02:56:36;6.20;99.90
20141;DHT22;10231;47.702;9.826;2023-11-19T02:59:03;6.30;99.90
20141;DHT22;10231;47.702;9.826;2023-11-19T03:01:40;6.30;99.90
20141;DHT22;10231;47.702;9.826;2023-11-19T03:04:09;6.30;99.90
20141;DHT22;10231;47.702;9.826;2023-11-19T03:06:37;6.40;99.90
20141;DHT22;10231;47.702;9.826;2023-11-19T03:09:03;6.30;99.90
20141;DHT22;10231;47.702;9.826;2023-11-19T03:11:33;6.30;99.90
20141;DHT22;10231;47.702;9.826;2023-11-19T03:13:59;6.40;99.90
20141;DHT22;10231;47.702;9.826;2023-11-19T03:16:24;6.40;99.90
20141;DHT22;10231;47.702;9.826;2023-11-19T03:18:50;6.30;99.90
20141;DHT22;10231;47.702;9.826;2023-11-19T03:21:15;6.30;99.90
20141;DHT22;10231;47.702;9.826;2023-11-19T03:23:41;6.30;99.90
20141;DHT22;10231;47.702;9.826;2023-11-19T03:26:07;6.30;99.90
20141;DHT22;10231;47.702;9.826;2023-11-19T03:28:33;6.30;99.90
20141;DHT22;10231;47.702;9.826;2023-11-19T03:30:59;6.30;99.90
20141;DHT22;10231;47.702;9.826;2023-11-19T03:33:24;6.30;99.90
20141;DHT22;10231;47.702;9.826;2023-11-19T03:35:53;6.40;99.90
20141;DHT22;10231;47.702;9.826;2023-11-19T03:38:18;6.40;99.90
20141;DHT22;10231;47.702;9.826;2023-11-19T03:40:44;6.50;99.90
20141;DHT22;10231;47.702;9.826;2023-11-19T03:43:09;6.40;99.90
20141;DHT22;10231;47.702;9.826;2023-11-19T03:45:35;6.40;99.90
20141;DHT22;10231;47.702;9.826;2023-11-19T03:48:01;6.40;99.90
20141;DHT22;10231;47.702;9.826;2023-11-19T03:50:27;6.50;99.90
20141;DHT22;10231;47.702;9.826;2023-11-19T03:52:52;6.40;99.90
20141;DHT22;10231;47.702;9.826;2023-11-19T03:55:18;6.50;99.90
20141;DHT22;10231;47.702;9.826;2023-11-19T03:57:43;6.50;99.90
20141;DHT22;10231;47.702;9.826;2023-11-19T04:00:09;6.50;99.90
20141;DHT22;10231;47.702;9.826;2023-11-19T04:02:39;6.50;99.90
20141;DHT22;10231;47.702;9.826;2023-11-19T04:05:05;6.60;99.90
20141;DHT22;10231;47.702;9.826;2023-11-19T04:07:32;6.60;99.90
20141;DHT22;10231;47.702;9.826;2023-11-19T04:09:58;6.60;99.90
20141;DHT22;10231;47.702;9.826;2023-11-19T04:12:24;6.70;99.90
20141;DHT22;10231;47.702;9.826;2023-11-19T04:14:49;6.70;99.90
20141;DHT22;10231;47.702;9.826;2023-11-19T04:17:15;6.80;99.90
20141;DHT22;10231;47.702;9.826;2023-11-19T04:19:40;6.80;99.90
20141;DHT22;10231;47.702;9.826;2023-11-19T04:22:07;6.80;99.90
20141;DHT22;10231;47.702;9.826;2023-11-19T04:24:34;6.70;99.90
20141;DHT22;10231;47.702;9.826;2023-11-19T04:27:00;6.70;99.90
20141;DHT22;10231;47.702;9.826;2023-11-19T04:29:25;6.70;99.90
20141;DHT22;10231;47.702;9.826;2023-11-19T04:31:51;6.80;99.90
20141;DHT22;10231;47.702;9.826;2023-11-19T04:34:16;6.80;99.90
20141;DHT22;10231;47.702;9.826;2023-11-19T04:36:42;6.80;99.90
20141;DHT22;10231;47.702;9.826;2023-11-19T04:39:09;6.80;99.90
20141;DHT22;10231;47.702;9.826;2023-11-19T04:41:35;6.80;99.90
20141;DHT22;10231;47.702;9.826;2023-11-19T04:44:01;6.90;99.90
20141;DHT22;10231;47.702;9.826;2023-11-19T04:46:27;6.90;99.90
20141;DHT22;10231;47.702;9.826;2023-11-19T04:48:53;6.90;99.90
20141;DHT22;10231;47.702;9.826;2023-11-19T04:51:18;6.90;99.90
20141;DHT22;10231;47.702;9.826;2023-11-19T04:53:44;6.90;99.90
20141;DHT22;10231;47.702;9.826;2023-11-19T04:56:12;6.90;99.90
20141;DHT22;10231;47.702;9.826;2023-11-19T04:58:38;7.00;99.90
20141;DHT22;10231;47.702;9.826;2023-11-19T05:01:04;7.00;99.90
20141;DHT22;10231;47.702;9.826;2023-11-19T05:03:31;7.00;99.90
20141;DHT22;10231;47.702;9.826;2023-11-19T05:05:57;7.00;99.90
20141;DHT22;10231;47.702;9.826;2023-11-19T05:08:22;7.00;99.90
20141;DHT22;10231;47.702;9.826;2023-11-19T05:10:48;7.10;99.90
20141;DHT22;10231;47.702;9.826;2023-11-19T05:13:14;7.10;99.90
20141;DHT22;10231;47.702;9.826;2023-11-19T05:15:40;7.20;99.90
20141;DHT22;10231;47.702;9.826;2023-11-19T05:18:06;7.20;99.90
20141;DHT22;10231;47.702;9.826;2023-11-19T05:20:31;7.20;99.90
20141;DHT22;10231;47.702;9.826;2023-11-19T05:22:57;7.30;99.90
20141;DHT22;10231;47.702;9.826;2023-11-19T05:25:26;7.30;99.90
20141;DHT22;10231;47.702;9.826;2023-11-19T05:27:52;7.30;99.90
20141;DHT22;10231;47.702;9.826;2023-11-19T05:30:17;7.40;99.90
20141;DHT22;10231;47.702;9.826;2023-11-19T05:32:43;7.40;99.90
20141;DHT22;10231;47.702;9.826;2023-11-19T05:35:09;7.40;99.90
20141;DHT22;10231;47.702;9.826;2023-11-19T05:37:34;7.50;99.90
20141;DHT22;10231;47.702;9.826;2023-11-19T05:40:00;7.50;99.90
20141;DHT22;10231;47.702;9.826;2023-11-19T05:42:28;7.60;99.90
20141;DHT22;10231;47.702;9.826;2023-11-19T05:44:54;7.60;99.90
20141;DHT22;10231;47.702;9.826;2023-11-19T05:47:19;7.70;99.90
20141;DHT22;10231;47.702;9.826;2023-11-19T05:49:45;7.70;99.90
20141;DHT22;10231;47.702;9.826;2023-11-19T05:52:10;7.80;99.90
20141;DHT22;10231;47.702;9.826;2023-11-19T05:54:37;7.80;99.90
20141;DHT22;10231;47.702;9.826;2023-11-19T05:57:04;7.80;99.90
20141;DHT22;10231;47.702;9.826;2023-11-19T05:59:30;7.80;99.90
20141;DHT22;10231;47.702;9.826;2023-11-19T06:01:58;7.90;99.90
20141;DHT22;10231;47.702;9.826;2023-11-19T06:04:24;7.90;99.90
20141;DHT22;10231;47.702;9.826;2023-11-19T06:06:49;7.90;99.90
20141;DHT22;10231;47.702;9.826;2023-11-19T06:09:15;7.90;99.90
20141;DHT22;10231;47.702;9.826;2023-11-19T06:11:40;7.90;99.90
20141;DHT22;10231;47.702;9.826;2023-11-19T06:14:06;8.00;99.90
20141;DHT22;10231;47.702;9.826;2023-11-19T06:16:32;8.00;99.90
20141;DHT22;10231;47.702;9.826;2023-11-19T06:18:58;8.00;99.90
20141;DHT22;10231;47.702;9.826;2023-11-19T06:21:23;8.00;99.90
20141;DHT22;10231;47.702;9.826;2023-11-19T06:23:50;8.00;99.90
20141;DHT22;10231;47.702;9.826;2023-11-19T06:26:17;8.10;99.90
20141;DHT22;10231;47.702;9.826;2023-11-19T06:28:43;8.10;99.90
20141;DHT22;10231;47.702;9.826;2023-11-19T06:31:09;8.10;99.90
20141;DHT22;10231;47.702;9.826;2023-11-19T06:33:35;8.00;99.90
20141;DHT22;10231;47.702;9.826;2023-11-19T06:36:00;8.10;99.90
20141;DHT22;10231;47.702;9.826;2023-11-19T06:38:26;8.10;99.90
20141;DHT22;10231;47.702;9.826;2023-11-19T06:40:51;8.10;99.90
20141;DHT22;10231;47.702;9.826;2023-11-19T06:43:17;8.20;99.90
20141;DHT22;10231;47.702;9.826;2023-11-19T06:45:43;8.20;99.90
20141;DHT22;10231;47.702;9.826;2023-11-19T06:48:09;8.30;99.90
20141;DHT22;10231;47.702;9.826;2023-11-19T06:50:34;8.30;99.90
20141;DHT22;10231;47.702;9.826;2023-11-19T06:53:00;8.30;99.90
20141;DHT22;10231;47.702;9.826;2023-11-19T06:55:26;8.30;99.90
20141;DHT22;10231;47.702;9.826;2023-11-19T06:57:52;8.40;99.90
20141;DHT22;10231;47.702;9.826;2023-11-19T07:00:17;8.40;99.90
20141;DHT22;10231;47.702;9.826;2023-11-19T07:02:43;8.40;99.90
20141;DHT22;10231;47.702;9.826;2023-11-19T07:05:09;8.40;99.90
20141;DHT22;10231;47.702;9.826;2023-11-19T07:07:35;8.50;99.90
20141;DHT22;10231;47.702;9.826;2023-11-19T07:10:01;8.50;99.90
20141;DHT22;10231;47.702;9.826;2023-11-19T07:12:27;8.40;99.90
20141;DHT22;10231;47.702;9.826;2023-11-19T07:14:53;8.40;99.90
20141;DHT22;10231;47.702;9.826;2023-11-19T07:17:20;8.40;99.90
20141;DHT22;10231;47.702;9.826;2023-11-19T07:19:46;8.40;99.90
20141;DHT22;10231;47.702;9.826;2023-11-19T07:22:12;8.40;99.90
20141;DHT22;10231;47.702;9.826;2023-11-19T07:24:40;8.40;99.90
20141;DHT22;10231;47.702;9.826;2023-11-19T07:27:07;8.50;99.90
20141;DHT22;10231;47.702;9.826;2023-11-19T07:29:34;8.50;99.90
20141;DHT22;10231;47.702;9.826;2023-11-19T07:31:59;8.50;99.90
20141;DHT22;10231;47.702;9.826;2023-11-19T07:34:27;8.50;99.90
20141;DHT22;10231;47.702;9.826;2023-11-19T07:36:53;8.50;99.90
20141;DHT22;10231;47.702;9.826;2023-11-19T07:39:19;8.50;99.90
20141;DHT22;10231;47.702;9.826;2023-11-19T07:41:46;8.60;99.90
20141;DHT22;10231;47.702;9.826;2023-11-19T07:44:11;8.50;99.90
20141;DHT22;10231;47.702;9.826;2023-11-19T07:46:37;8.50;99.90
20141;DHT22;10231;47.702;9.826;2023-11-19T07:49:02;8.50;99.90
20141;DHT22;10231;47.702;9.826;2023-11-19T07:51:28;8.60;99.90
20141;DHT22;10231;47.702;9.826;2023-11-19T07:53:54;8.60;99.90
20141;DHT22;10231;47.702;9.826;2023-11-19T07:56:19;8.50;99.90
20141;DHT22;10231;47.702;9.826;2023-11-19T07:58:45;8.50;99.90
20141;DHT22;10231;47.702;9.826;2023-11-19T08:01:10;8.50;99.90
20141;DHT22;10231;47.702;9.826;2023-11-19T08:03:36;8.50;99.90
20141;DHT22;10231;47.702;9.826;2023-11-19T08:06:03;8.50;99.90
20141;DHT22;10231;47.702;9.826;2023-11-19T08:08:28;8.50;99.90
20141;DHT22;10231;47.702;9.826;2023-11-19T08:10:56;8.50;99.90
20141;DHT22;10231;47.702;9.826;2023-11-19T08:13:23;8.50;99.90
20141;DHT22;10231;47.702;9.826;2023-11-19T08:15:49;8.60;99.90
20141;DHT22;10231;47.702;9.826;2023-11-19T08:18:14;8.60;99.90
20141;DHT22;10231;47.702;9.826;2023-11-19T08:20:40;8.70;99.90
20141;DHT22;10231;47.702;9.826;2023-11-19T08:23:06;8.70;99.90
20141;DHT22;10231;47.702;9.826;2023-11-19T08:25:32;8.70;99.90
20141;DHT22;10231;47.702;9.826;2023-11-19T08:27:59;8.70;99.90
20141;DHT22;10231;47.702;9.826;2023-11-19T08:30:29;8.70;99.90
20141;DHT22;10231;47.702;9.826;2023-11-19T08:32:54;8.70;99.90
20141;DHT22;10231;47.702;9.826;2023-11-19T08:35:20;8.60;99.90
20141;DHT22;10231;47.702;9.826;2023-11-19T08:37:46;8.70;99.90
20141;DHT22;10231;47.702;9.826;2023-11-19T08:40:12;8.70;99.90
20141;DHT22;10231;47.702;9.826;2023-11-19T08:42:40;8.70;99.90
20141;DHT22;10231;47.702;9.826;2023-11-19T08:45:07;8.70;99.90
20141;DHT22;10231;47.702;9.826;2023-11-19T08:47:35;8.70;99.90
20141;DHT22;10231;47.702;9.826;2023-11-19T08:50:01;8.70;99.90
20141;DHT22;10231;47.702;9.826;2023-11-19T08:52:26;8.70;99.90
20141;DHT22;10231;47.702;9.826;2023-11-19T08:54:52;8.70;99.90
20141;DHT22;10231;47.702;9.826;2023-11-19T08:57:17;8.80;99.90
20141;DHT22;10231;47.702;9.826;2023-11-19T08:59:43;8.70;99.90
20141;DHT22;10231;47.702;9.826;2023-11-19T09:02:11;8.80;99.90
20141;DHT22;10231;47.702;9.826;2023-11-19T09:04:36;8.90;99.90
20141;DHT22;10231;47.702;9.826;2023-11-19T09:07:02;8.90;99.90
20141;DHT22;10231;47.702;9.826;2023-11-19T09:09:28;8.90;99.90
20141;DHT22;10231;47.702;9.826;2023-11-19T09:11:54;8.90;99.90
20141;DHT22;10231;47.702;9.826;2023-11-19T09:14:20;8.90;99.90
20141;DHT22;10231;47.702;9.826;2023-11-19T09:16:51;9.00;99.90
20141;DHT22;10231;47.702;9.826;2023-11-19T09:19:16;9.00;99.90
20141;DHT22;10231;47.702;9.826;2023-11-19T09:21:43;9.00;99.90
20141;DHT22;10231;47.702;9.826;2023-11-19T09:24:08;9.00;99.90
20141;DHT22;10231;47.702;9.826;2023-11-19T09:26:34;9.00;99.90
20141;DHT22;10231;47.702;9.826;2023-11-19T09:29:01;9.00;99.90
20141;DHT22;10231;47.702;9.826;2023-11-19T09:31:27;9.10;99.90
20141;DHT22;10231;47.702;9.826;2023-11-19T09:33:52;9.10;99.90
20141;DHT22;10231;47.702;9.826;2023-11-19T09:36:18;9.20;99.90
20141;DHT22;10231;47.702;9.826;2023-11-19T09:38:44;9.10;99.90
20141;DHT22;10231;47.702;9.826;2023-11-19T09:41:10;9.20;99.90
20141;DHT22;10231;47.702;9.826;2023-11-19T09:43:39;9.20;99.90
20141;DHT22;10231;47.702;9.826;2023-11-19T09:46:07;9.20;99.90
20141;DHT22;10231;47.702;9.826;2023-11-19T09:48:36;9.10;99.90
20141;DHT22;10231;47.702;9.826;2023-11-19T09:51:07;9.20;99.90
20141;DHT22;10231;47.702;9.826;2023-11-19T09:53:34;9.30;99.90
20141;DHT22;10231;47.702;9.826;2023-11-19T09:56:00;9.30;99.90
20141;DHT22;10231;47.702;9.826;2023-11-19T09:58:31;9.30;99.90
20141;DHT22;10231;47.702;9.826;2023-11-19T10:00:58;9.30;99.90
20141;DHT22;10231;47.702;9.826;2023-11-19T10:03:35;9.30;99.90
20141;DHT22;10231;47.702;9.826;2023-11-19T10:06:03;9.30;99.90
20141;DHT22;10231;47.702;9.826;2023-11-19T10:08:29;9.40;99.90
20141;DHT22;10231;47.702;9.826;2023-11-19T10:10:55;9.40;99.90
20141;DHT22;10231;47.702;9.826;2023-11-19T10:13:26;9.40;99.90
20141;DHT22;10231;47.702;9.826;2023-11-19T10:15:53;9.40;99.90
20141;DHT22;10231;47.702;9.826;2023-11-19T10:18:18;9.50;99.90
20141;DHT22;10231;47.702;9.826;2023-11-19T10:20:48;9.50;99.90
20141;DHT22;10231;47.702;9.826;2023-11-19T10:23:14;9.50;99.90
20141;DHT22;10231;47.702;9.826;2023-11-19T10:25:40;9.70;99.90
20141;DHT22;10231;47.702;9.826;2023-11-19T10:28:05;9.80;99.90
20141;DHT22;10231;47.702;9.826;2023-11-19T10:30:31;9.90;99.90
20141;DHT22;10231;47.702;9.826;2023-11-19T10:33:13;9.90;99.90
20141;DHT22;10231;47.702;9.826;2023-11-19T10:35:58;10.00;99.90
20141;DHT22;10231;47.702;9.826;2023-11-19T10:38:25;10.10;99.90
20141;DHT22;10231;47.702;9.826;2023-11-19T10:40:51;10.10;99.90
20141;DHT22;10231;47.702;9.826;2023-11-19T10:43:18;10.20;99.90
20141;DHT22;10231;47.702;9.826;2023-11-19T10:45:43;10.20;99.90
20141;DHT22;10231;47.702;9.826;2023-11-19T10:48:09;10.30;99.90
20141;DHT22;10231;47.702;9.826;2023-11-19T10:50:42;10.30;99.90
20141;DHT22;10231;47.702;9.826;2023-11-19T10:53:11;10.40;99.90
20141;DHT22;10231;47.702;9.826;2023-11-19T10:55:39;10.40;99.90
20141;DHT22;10231;47.702;9.826;2023-11-19T10:58:09;10.40;99.90
20141;DHT22;10231;47.702;9.826;2023-11-19T11:00:38;10.40;99.90
20141;DHT22;10231;47.702;9.826;2023-11-19T11:03:16;10.40;99.90
20141;DHT22;10231;47.702;9.826;2023-11-19T11:05:42;10.40;99.90
20141;DHT22;10231;47.702;9.826;2023-11-19T11:08:09;10.50;99.90
20141;DHT22;10231;47.702;9.826;2023-11-19T11:10:42;10.50;99.90
20141;DHT22;10231;47.702;9.826;2023-11-19T11:13:08;10.40;99.90
20141;DHT22;10231;47.702;9.826;2023-11-19T11:15:35;10.40;99.90
20141;DHT22;10231;47.702;9.826;2023-11-19T11:18:02;10.40;99.90
20141;DHT22;10231;47.702;9.826;2023-11-19T11:20:32;10.50;99.90
20141;DHT22;10231;47.702;9.826;2023-11-19T11:37:20;10.20;99.90
20141;DHT22;10231;47.702;9.826;2023-11-19T11:39:49;10.20;99.90
20141;DHT22;10231;47.702;9.826;2023-11-19T11:45:06;10.20;99.90
20141;DHT22;10231;47.702;9.826;2023-11-19T11:50:14;10.10;99.90
20141;DHT22;10231;47.702;9.826;2023-11-19T11:58:29;10.10;99.90
20141;DHT22;10231;47.702;9.826;2023-11-19T12:01:00;10.10;99.90
20141;DHT22;10231;47.702;9.826;2023-11-19T12:03:28;10.20;99.90
20141;DHT22;10231;47.702;9.826;2023-11-19T12:05:54;10.20;99.90
20141;DHT22;10231;47.702;9.826;2023-11-19T12:08:25;10.10;99.90
20141;DHT22;10231;47.702;9.826;2023-11-19T12:10:55;10.20;99.90
20141;DHT22;10231;47.702;9.826;2023-11-19T12:13:24;10.20;99.90
20141;DHT22;10231;47.702;9.826;2023-11-19T12:18:23;10.20;99.90
20141;DHT22;10231;47.702;9.826;2023-11-19T12:20:49;10.20;99.90
20141;DHT22;10231;47.702;9.826;2023-11-19T12:23:15;10.30;99.90
20141;DHT22;10231;47.702;9.826;2023-11-19T12:25:41;10.20;99.90
20141;DHT22;10231;47.702;9.826;2023-11-19T12:28:12;10.30;99.90
20141;DHT22;10231;47.702;9.826;2023-11-19T12:30:37;10.30;99.90
20141;DHT22;10231;47.702;9.826;2023-11-19T12:33:08;10.30;99.90
20141;DHT22;10231;47.702;9.826;2023-11-19T12:35:43;10.30;99.90
20141;DHT22;10231;47.702;9.826;2023-11-19T12:38:22;10.30;99.90
20141;DHT22;10231;47.702;9.826;2023-11-19T12:41:08;10.30;99.90
20141;DHT22;10231;47.702;9.826;2023-11-19T12:43:34;10.30;99.90
20141;DHT22;10231;47.702;9.826;2023-11-19T12:46:01;10.30;99.90
20141;DHT22;10231;47.702;9.826;2023-11-19T12:48:27;10.30;99.90
20141;DHT22;10231;47.702;9.826;2023-11-19T12:50:56;10.30;99.90
20141;DHT22;10231;47.702;9.826;2023-11-19T12:53:23;10.30;99.90
20141;DHT22;10231;47.702;9.826;2023-11-19T12:55:50;10.30;99.90
20141;DHT22;10231;47.702;9.826;2023-11-19T12:58:32;10.30;99.90
20141;DHT22;10231;47.702;9.826;2023-11-19T13:01:03;10.30;99.90
20141;DHT22;10231;47.702;9.826;2023-11-19T13:03:31;10.30;99.90
20141;DHT22;10231;47.702;9.826;2023-11-19T13:06:11;10.40;99.90
20141;DHT22;10231;47.702;9.826;2023-11-19T13:08:49;10.30;99.90
20141;DHT22;10231;47.702;9.826;2023-11-19T13:11:32;10.30;99.90
20141;DHT22;10231;47.702;9.826;2023-11-19T13:13:59;10.30;99.90
20141;DHT22;10231;47.702;9.826;2023-11-19T13:16:26;10.30;99.90
20141;DHT22;10231;47.702;9.826;2023-11-19T13:18:51;10.30;99.90
20141;DHT22;10231;47.702;9.826;2023-11-19T13:21:17;10.30;99.90
20141;DHT22;10231;47.702;9.826;2023-11-19T13:23:44;10.40;99.90
20141;DHT22;10231;47.702;9.826;2023-11-19T13:26:10;10.40;99.90
20141;DHT22;10231;47.702;9.826;2023-11-19T13:28:36;10.40;99.90
20141;DHT22;10231;47.702;9.826;2023-11-19T13:31:02;10.50;99.90
20141;DHT22;10231;47.702;9.826;2023-11-19T13:33:28;10.50;99.90
20141;DHT22;10231;47.702;9.826;2023-11-19T13:35:55;10.50;99.90
20141;DHT22;10231;47.702;9.826;2023-11-19T13:38:20;10.50;99.90
20141;DHT22;10231;47.702;9.826;2023-11-19T13:40:46;10.60;99.90
20141;DHT22;10231;47.702;9.826;2023-11-19T13:43:11;10.60;99.90
20141;DHT22;10231;47.702;9.826;2023-11-19T13:45:37;10.60;99.90
20141;DHT22;10231;47.702;9.826;2023-11-19T13:48:03;10.70;99.90
20141;DHT22;10231;47.702;9.826;2023-11-19T13:50:28;10.70;99.90
20141;DHT22;10231;47.702;9.826;2023-11-19T13:52:54;10.70;99.90
20141;DHT22;10231;47.702;9.826;2023-11-19T13:55:20;10.70;99.90
20141;DHT22;10231;47.702;9.826;2023-11-19T13:57:45;10.70;99.90
20141;DHT22;10231;47.702;9.826;2023-11-19T14:00:12;10.70;99.90
20141;DHT22;10231;47.702;9.826;2023-11-19T14:02:41;10.70;99.90
20141;DHT22;10231;47.702;9.826;2023-11-19T14:05:08;10.70;99.90
20141;DHT22;10231;47.702;9.826;2023-11-19T14:07:34;10.80;99.90
20141;DHT22;10231;47.702;9.826;2023-11-19T14:10:00;10.70;99.90
20141;DHT22;10231;47.702;9.826;2023-11-19T14:12:26;10.70;99.90
20141;DHT22;10231;47.702;9.826;2023-11-19T14:14:51;10.70;99.90
20141;DHT22;10231;47.702;9.826;2023-11-19T14:17:17;10.70;99.90
20141;DHT22;10231;47.702;9.826;2023-11-19T14:19:44;10.70;99.90
20141;DHT22;10231;47.702;9.826;2023-11-19T14:22:09;10.80;99.90
20141;DHT22;10231;47.702;9.826;2023-11-19T14:24:35;10.80;99.90
20141;DHT22;10231;47.702;9.826;2023-11-19T14:27:01;10.80;99.90
20141;DHT22;10231;47.702;9.826;2023-11-19T14:29:27;10.70;99.90
20141;DHT22;10231;47.702;9.826;2023-11-19T14:31:56;10.80;99.90
20141;DHT22;10231;47.702;9.826;2023-11-19T14:34:22;10.90;99.90
20141;DHT22;10231;47.702;9.826;2023-11-19T14:36:48;10.90;99.90
20141;DHT22;10231;47.702;9.826;2023-11-19T14:39:14;10.90;99.90
20141;DHT22;10231;47.702;9.826;2023-11-19T14:41:40;10.80;99.90
20141;DHT22;10231;47.702;9.826;2023-11-19T14:44:05;10.80;99.90
20141;DHT22;10231;47.702;9.826;2023-11-19T14:46:31;10.80;99.90
20141;DHT22;10231;47.702;9.826;2023-11-19T14:48:57;10.70;99.90
20141;DHT22;10231;47.702;9.826;2023-11-19T14:51:23;10.70;99.90
20141;DHT22;10231;47.702;9.826;2023-11-19T14:53:48;10.70;99.90
20141;DHT22;10231;47.702;9.826;2023-11-19T14:56:14;10.70;99.90
20141;DHT22;10231;47.702;9.826;2023-11-19T14:58:40;10.80;99.90
20141;DHT22;10231;47.702;9.826;2023-11-19T15:01:06;10.70;99.90
20141;DHT22;10231;47.702;9.826;2023-11-19T15:03:32;10.80;99.90
20141;DHT22;10231;47.702;9.826;2023-11-19T15:05:58;10.70;99.90
20141;DHT22;10231;47.702;9.826;2023-11-19T15:08:24;10.80;99.90
20141;DHT22;10231;47.702;9.826;2023-11-19T15:10:49;10.70;99.90
20141;DHT22;10231;47.702;9.826;2023-11-19T15:13:15;10.80;99.90
20141;DHT22;10231;47.702;9.826;2023-11-19T15:15:41;10.80;99.90
20141;DHT22;10231;47.702;9.826;2023-11-19T15:18:07;10.80;99.90
20141;DHT22;10231;47.702;9.826;2023-11-19T15:20:32;10.90;99.90
20141;DHT22;10231;47.702;9.826;2023-11-19T15:22:58;10.80;99.90
20141;DHT22;10231;47.702;9.826;2023-11-19T15:25:24;10.90;99.90
20141;DHT22;10231;47.702;9.826;2023-11-19T15:27:50;10.90;99.90
20141;DHT22;10231;47.702;9.826;2023-11-19T15:30:16;10.90;99.90
20141;DHT22;10231;47.702;9.826;2023-11-19T15:32:42;10.90;99.90
20141;DHT22;10231;47.702;9.826;2023-11-19T15:35:09;10.90;99.90
20141;DHT22;10231;47.702;9.826;2023-11-19T15:37:35;10.80;99.90
20141;DHT22;10231;47.702;9.826;2023-11-19T15:40:01;10.80;99.90
20141;DHT22;10231;47.702;9.826;2023-11-19T15:42:29;10.70;99.90
20141;DHT22;10231;47.702;9.826;2023-11-19T15:44:55;10.80;99.90
20141;DHT22;10231;47.702;9.826;2023-11-19T15:47:20;10.80;99.90
20141;DHT22;10231;47.702;9.826;2023-11-19T15:49:47;10.80;99.90
20141;DHT22;10231;47.702;9.826;2023-11-19T15:52:14;10.80;99.90
20141;DHT22;10231;47.702;9.826;2023-11-19T15:54:40;10.80;99.90
20141;DHT22;10231;47.702;9.826;2023-11-19T15:57:06;10.80;99.90
20141;DHT22;10231;47.702;9.826;2023-11-19T15:59:32;10.70;99.90
20141;DHT22;10231;47.702;9.826;2023-11-19T16:01:57;10.70;99.90
20141;DHT22;10231;47.702;9.826;2023-11-19T16:04:23;10.70;99.90